Dannelly, Alabama
Current Conditions -  °F | °C
As of 5:58 PM on Sunday 21 Dec 2014 (Local Time) from KMXF Reporting Station
Overcast Overcast  
Wind Chill: 54°   Ceiling: 1300
Heat Index: 54°   Visibility: 10mi
Dew Point: 50°   Wind: 6mph
Humidity: 84%   Direction: 100°E
Pressure: 30.05"   Gusts: NA
Location:  32.3488°N, 86.4016°W
Report Text: KMXF 212358Z AUTO 10005KT 10SM OVC013 12/10 A3005 RMK AO2 SLP179 60000 T01240098 10128 20124 55007
Loading
Personal Weather Stations






























Interactive Weather Map New forecast layout! Learn more

10-Day Weather Forecast

Advertisements
Track Severe Weather on mobile